createdAt,value
2022-08-22T00:00:13.891Z,6.23
2022-08-22T00:02:21.459Z,7.07
2022-08-22T00:02:49.863Z,6.20
2022-08-22T00:02:49.989Z,6.10
2022-08-22T00:02:56.358Z,4.60
2022-08-22T00:02:59.341Z,6.80
2022-08-22T00:03:16.022Z,6.20
2022-08-22T00:04:29.845Z,6.97
2022-08-22T00:06:44.638Z,6.90
2022-08-22T00:08:55.558Z,6.37
2022-08-22T00:11:02.637Z,6.50
2022-08-22T00:13:09.916Z,6.53
2022-08-22T00:15:43.653Z,6.60
2022-08-22T00:17:49.055Z,6.80
2022-08-22T00:19:57.103Z,6.60
2022-08-22T00:22:03.619Z,6.40
2022-08-22T00:24:11.878Z,6.50
2022-08-22T00:26:24.689Z,5.97
2022-08-22T00:28:31.383Z,6.53
2022-08-22T00:30:45.812Z,7.20
2022-08-22T00:32:51.864Z,7.40
2022-08-22T00:34:58.947Z,6.40
2022-08-22T00:37:04.999Z,6.93
2022-08-22T00:39:13.099Z,7.03
2022-08-22T00:41:32.115Z,6.90
2022-08-22T00:43:58.579Z,6.53
2022-08-22T00:46:19.635Z,7.17
2022-08-22T00:48:49.470Z,6.47
2022-08-22T00:51:05.474Z,7.20
2022-08-22T00:53:27.438Z,6.50
2022-08-22T00:55:45.299Z,6.90
2022-08-22T00:58:03.502Z,6.17
2022-08-22T01:00:13.115Z,6.50
2022-08-22T01:02:31.766Z,6.37
2022-08-22T01:05:08.353Z,6.97
2022-08-22T01:07:38.158Z,6.63
2022-08-22T01:09:50.866Z,7.20
2022-08-22T01:12:11.789Z,6.83
2022-08-22T01:14:34.251Z,6.63
2022-08-22T01:16:52.072Z,6.60
2022-08-22T01:19:08.478Z,6.47
2022-08-22T01:21:49.847Z,7.53
2022-08-22T01:24:32.859Z,7.07
2022-08-22T01:27:13.766Z,7.20
2022-08-22T01:29:49.516Z,6.73
2022-08-22T01:32:28.165Z,7.10
2022-08-22T01:34:41.659Z,7.10
2022-08-22T01:37:01.629Z,6.60
2022-08-22T01:39:25.712Z,7.40
2022-08-22T01:41:46.793Z,7.27
2022-08-22T01:44:10.021Z,7.30
2022-08-22T01:46:27.050Z,7.00
2022-08-22T01:48:36.003Z,7.93
2022-08-22T01:50:43.499Z,6.70
2022-08-22T01:52:50.707Z,7.20
2022-08-22T01:54:56.169Z,8.40
2022-08-22T01:57:04.467Z,7.43
2022-08-22T01:59:11.214Z,6.83
2022-08-22T02:01:21.453Z,7.30
2022-08-22T02:03:27.191Z,6.93
2022-08-22T02:05:33.575Z,7.00
2022-08-22T02:07:46.155Z,7.40
2022-08-22T02:09:54.117Z,7.20
2022-08-22T02:11:59.754Z,7.10
2022-08-22T02:14:14.067Z,7.20
2022-08-22T02:16:21.561Z,7.13
2022-08-22T02:18:29.168Z,7.33
2022-08-22T02:20:35.408Z,7.13
2022-08-22T02:22:44.921Z,7.80
2022-08-22T02:24:52.377Z,7.70
2022-08-22T02:27:06.241Z,7.60
2022-08-22T02:29:13.407Z,7.43
2022-08-22T02:31:21.521Z,6.97
2022-08-22T02:33:30.147Z,7.50
2022-08-22T02:35:38.867Z,7.63
2022-08-22T02:37:50.594Z,7.80
2022-08-22T02:40:03.190Z,7.77
2022-08-22T02:42:16.329Z,7.43
2022-08-22T02:44:22.617Z,7.40
2022-08-22T02:46:31.542Z,7.10
2022-08-22T02:48:38.380Z,7.17
2022-08-22T02:50:45.531Z,6.97
2022-08-22T02:53:02.367Z,7.57
2022-08-22T02:55:09.172Z,7.30
2022-08-22T02:57:14.142Z,7.37
2022-08-22T02:59:26.081Z,7.60
2022-08-22T03:01:40.784Z,7.60
2022-08-22T03:03:47.712Z,7.47
2022-08-22T03:06:01.018Z,7.50
2022-08-22T03:08:13.129Z,7.50
2022-08-22T03:10:22.926Z,7.63
2022-08-22T03:12:32.124Z,8.07
2022-08-22T03:14:43.085Z,7.80
2022-08-22T03:16:50.720Z,7.80
2022-08-22T03:18:57.295Z,7.67
2022-08-22T03:21:14.930Z,7.27
2022-08-22T03:23:32.670Z,7.77
2022-08-22T03:25:39.265Z,7.80
2022-08-22T03:27:49.471Z,8.13
2022-08-22T03:29:55.855Z,7.40
2022-08-22T03:32:12.255Z,7.43
2022-08-22T03:34:22.172Z,8.13
2022-08-22T03:36:28.259Z,8.70
2022-08-22T03:38:49.177Z,8.10
2022-08-22T03:41:16.407Z,7.70
2022-08-22T03:43:32.252Z,8.10
2022-08-22T03:46:04.419Z,8.27
2022-08-22T03:48:36.573Z,8.30
2022-08-22T03:51:00.020Z,8.20
2022-08-22T03:53:41.068Z,7.90
2022-08-22T03:56:46.420Z,7.23
2022-08-22T03:59:12.273Z,7.87
2022-08-22T04:01:41.360Z,7.70
2022-08-22T04:04:24.042Z,7.80
2022-08-22T04:06:56.403Z,8.40
2022-08-22T04:09:27.603Z,8.17
2022-08-22T04:11:46.880Z,8.20
2022-08-22T04:13:58.698Z,7.90
2022-08-22T04:16:15.974Z,8.67
2022-08-22T04:18:37.871Z,8.07
2022-08-22T04:21:28.837Z,7.80
2022-08-22T04:23:57.931Z,7.63
2022-08-22T04:26:11.958Z,8.57
2022-08-22T04:28:20.818Z,8.00
2022-08-22T04:30:28.659Z,7.87
2022-08-22T04:32:36.451Z,8.40
2022-08-22T04:34:42.629Z,8.60
2022-08-22T04:36:48.704Z,8.47
2022-08-22T04:38:55.807Z,8.60
2022-08-22T04:41:04.943Z,8.53
2022-08-22T04:43:11.090Z,8.23
2022-08-22T04:45:18.173Z,8.30
2022-08-22T04:47:29.940Z,8.73
2022-08-22T04:49:36.995Z,8.93
2022-08-22T04:51:42.281Z,8.60
2022-08-22T04:53:57.505Z,7.90
2022-08-22T04:56:08.247Z,7.93
2022-08-22T04:58:23.146Z,8.23
2022-08-22T05:00:26.234Z,8.37
2022-08-22T05:02:31.174Z,8.10
2022-08-22T05:04:36.938Z,8.40
2022-08-22T05:06:41.494Z,8.37
2022-08-22T05:08:46.446Z,8.53
2022-08-22T05:10:57.312Z,9.00
2022-08-22T05:13:04.412Z,8.53
2022-08-22T05:15:12.038Z,8.57
2022-08-22T05:17:19.322Z,8.27
2022-08-22T05:19:33.196Z,9.33
2022-08-22T05:21:39.598Z,7.93
2022-08-22T05:23:44.229Z,7.57
2022-08-22T05:25:51.201Z,8.67
2022-08-22T05:27:56.854Z,8.40
2022-08-22T05:30:06.104Z,8.83
2022-08-22T05:32:15.533Z,9.37
2022-08-22T05:34:23.164Z,8.93
2022-08-22T05:36:28.302Z,9.43
2022-08-22T05:38:33.599Z,7.90
2022-08-22T05:40:37.705Z,8.40
2022-08-22T05:42:41.221Z,9.10
2022-08-22T05:44:44.448Z,8.80
2022-08-22T05:46:52.807Z,8.60
2022-08-22T05:48:58.552Z,9.13
2022-08-22T05:51:09.422Z,9.00
2022-08-22T05:53:15.467Z,9.90
2022-08-22T05:55:26.302Z,8.00
2022-08-22T05:57:32.407Z,7.93
2022-08-22T05:59:37.044Z,8.50
2022-08-22T06:01:47.862Z,8.43
2022-08-22T06:04:02.472Z,8.60
2022-08-22T06:06:12.616Z,8.30
2022-08-22T06:08:19.681Z,8.43
2022-08-22T06:10:27.301Z,8.10
2022-08-22T06:12:34.260Z,7.70
2022-08-22T06:14:42.463Z,8.33
2022-08-22T06:16:48.905Z,8.20
2022-08-22T06:18:52.864Z,8.07
2022-08-22T06:20:59.628Z,8.07
2022-08-22T06:23:04.020Z,7.63
2022-08-22T06:25:09.327Z,7.40
2022-08-22T06:27:14.370Z,7.90
2022-08-22T06:29:27.177Z,7.40
2022-08-22T06:31:32.465Z,7.90
2022-08-22T06:33:38.438Z,8.07
2022-08-22T06:36:00.944Z,7.10
2022-08-22T06:38:05.330Z,7.87
2022-08-22T06:40:10.207Z,6.77
2022-08-22T06:42:16.848Z,7.40
2022-08-22T06:44:23.318Z,7.50
2022-08-22T06:46:28.455Z,7.77
2022-08-22T06:48:31.747Z,7.53
2022-08-22T06:50:36.853Z,7.33
2022-08-22T06:52:50.813Z,7.20
2022-08-22T06:55:00.274Z,7.77
2022-08-22T06:57:05.143Z,7.13
2022-08-22T06:59:11.309Z,8.03
2022-08-22T07:01:17.748Z,7.57
2022-08-22T07:03:26.055Z,7.70
2022-08-22T07:05:30.982Z,7.20
2022-08-22T07:07:34.059Z,6.77
2022-08-22T07:09:38.951Z,7.40
2022-08-22T07:11:43.648Z,6.90
2022-08-22T07:13:50.680Z,8.10
2022-08-22T07:15:56.257Z,7.27
2022-08-22T07:18:01.944Z,7.13
2022-08-22T07:20:11.465Z,7.43
2022-08-22T07:22:17.198Z,7.00
2022-08-22T07:24:24.528Z,7.70
2022-08-22T07:26:32.702Z,7.10
2022-08-22T07:28:51.155Z,6.40
2022-08-22T07:31:05.377Z,6.43
2022-08-22T07:33:26.726Z,5.93
2022-08-22T07:35:32.012Z,6.17
2022-08-22T07:37:55.830Z,6.07
2022-08-22T07:40:05.123Z,6.23
2022-08-22T07:42:12.982Z,6.07
2022-08-22T07:44:18.930Z,6.17
2022-08-22T07:46:28.532Z,5.63
2022-08-22T07:48:40.867Z,5.87
2022-08-22T07:51:00.442Z,5.63
2022-08-22T07:53:08.696Z,5.80
2022-08-22T07:55:17.664Z,6.03
2022-08-22T07:57:24.199Z,5.50
2022-08-22T07:59:29.956Z,5.37
2022-08-22T08:01:33.252Z,5.30
2022-08-22T08:03:36.656Z,5.57
2022-08-22T08:05:42.757Z,5.47
2022-08-22T08:07:47.825Z,5.60
2022-08-22T08:09:56.400Z,6.17
2022-08-22T08:12:00.848Z,5.77
2022-08-22T08:14:05.316Z,5.87
2022-08-22T08:16:13.536Z,5.20
2022-08-22T08:18:21.967Z,5.30
2022-08-22T08:20:27.238Z,4.87
2022-08-22T08:22:30.630Z,5.30
2022-08-22T08:24:40.191Z,5.47
2022-08-22T08:27:05.943Z,5.50
2022-08-22T08:29:09.210Z,5.50
2022-08-22T08:31:21.573Z,5.53
2022-08-22T08:33:28.108Z,5.80
2022-08-22T08:36:01.963Z,5.70
2022-08-22T08:38:03.434Z,5.90
2022-08-22T08:40:20.267Z,5.40
2022-08-22T08:43:02.825Z,5.53
2022-08-22T08:45:20.408Z,5.67
2022-08-22T08:47:32.687Z,5.50
2022-08-22T08:50:08.216Z,5.13
2022-08-22T08:52:24.441Z,6.57
2022-08-22T08:54:43.348Z,6.27
2022-08-22T08:56:54.410Z,6.50
2022-08-22T08:59:10.265Z,6.10
2022-08-22T09:01:29.802Z,6.50
2022-08-22T09:03:54.453Z,6.40
2022-08-22T09:06:07.197Z,6.30
2022-08-22T09:08:47.520Z,5.90
2022-08-22T09:11:19.244Z,6.10
2022-08-22T09:13:48.450Z,5.80
2022-08-22T09:16:04.780Z,6.60
2022-08-22T09:19:03.654Z,6.03
2022-08-22T09:21:30.800Z,6.30
2022-08-22T09:24:18.638Z,5.90
2022-08-22T09:26:28.211Z,5.83
2022-08-22T09:28:37.250Z,5.43
2022-08-22T09:31:16.981Z,5.90
2022-08-22T09:33:35.085Z,6.10
2022-08-22T09:35:47.903Z,5.87
2022-08-22T09:38:16.539Z,6.10
2022-08-22T09:40:29.050Z,6.30
2022-08-22T09:42:44.934Z,6.00
2022-08-22T09:44:59.786Z,5.97
2022-08-22T09:47:08.546Z,5.90
2022-08-22T09:49:14.724Z,6.17
2022-08-22T09:51:34.441Z,5.63
2022-08-22T09:53:53.069Z,5.90
2022-08-22T09:56:15.010Z,5.67
2022-08-22T09:58:23.621Z,5.80
2022-08-22T10:00:33.568Z,5.97
2022-08-22T10:02:43.539Z,5.93
2022-08-22T10:04:47.938Z,5.70
2022-08-22T10:06:59.519Z,5.87
2022-08-22T10:09:08.972Z,5.80
2022-08-22T10:11:20.798Z,5.33
2022-08-22T10:13:34.372Z,5.00
2022-08-22T10:15:42.634Z,6.17
2022-08-22T10:17:53.268Z,5.60
2022-08-22T10:20:05.872Z,5.80
2022-08-22T10:22:36.998Z,5.27
2022-08-22T10:24:48.496Z,5.53
2022-08-22T10:26:54.484Z,4.87
2022-08-22T10:29:01.656Z,5.10
2022-08-22T10:31:22.507Z,4.80
2022-08-22T10:33:29.403Z,4.93
2022-08-22T10:35:35.734Z,5.23
2022-08-22T10:37:46.069Z,4.83
2022-08-22T10:39:56.269Z,4.70
2022-08-22T10:42:19.369Z,5.50
2022-08-22T10:44:32.061Z,4.80
2022-08-22T10:46:38.945Z,5.10
2022-08-22T10:48:50.325Z,4.83
2022-08-22T10:50:58.521Z,5.07
2022-08-22T10:53:24.696Z,5.17
2022-08-22T10:55:33.513Z,5.37
2022-08-22T10:57:56.722Z,5.50
2022-08-22T11:00:07.107Z,5.27
2022-08-22T11:02:26.177Z,5.87
2022-08-22T11:04:39.178Z,5.37
2022-08-22T11:06:46.499Z,4.87
2022-08-22T11:09:10.904Z,5.20
2022-08-22T11:11:21.270Z,5.00
2022-08-22T11:13:28.423Z,5.10
2022-08-22T11:15:53.025Z,4.80
2022-08-22T11:18:14.798Z,4.30
2022-08-22T11:20:22.218Z,4.77
2022-08-22T11:22:31.460Z,4.70
2022-08-22T11:25:06.705Z,4.67
2022-08-22T11:27:20.868Z,5.17
2022-08-22T11:29:39.674Z,4.73
2022-08-22T11:31:52.215Z,5.17
2022-08-22T11:34:01.048Z,4.80
2022-08-22T11:36:12.805Z,4.50
2022-08-22T11:38:31.213Z,4.87
2022-08-22T11:40:43.709Z,4.57
2022-08-22T11:42:50.121Z,4.23
2022-08-22T11:44:55.933Z,4.63
2022-08-22T11:47:01.320Z,4.57
2022-08-22T11:49:27.244Z,4.40
2022-08-22T11:51:47.147Z,4.87
2022-08-22T11:53:56.394Z,4.27
2022-08-22T11:56:12.222Z,5.10
2022-08-22T11:58:29.281Z,4.43
2022-08-22T12:00:37.183Z,4.80
2022-08-22T12:02:54.899Z,4.80
2022-08-22T12:05:03.911Z,5.30
2022-08-22T12:07:14.388Z,4.70
2022-08-22T12:09:40.134Z,4.93
2022-08-22T12:11:54.451Z,4.67
2022-08-22T12:14:06.546Z,5.57
2022-08-22T12:16:15.709Z,4.93
2022-08-22T12:18:31.072Z,4.53
2022-08-22T12:20:49.931Z,4.53
2022-08-22T12:23:12.134Z,4.47
2022-08-22T12:25:24.046Z,4.60
2022-08-22T12:27:49.723Z,4.60
2022-08-22T12:30:05.547Z,5.03
2022-08-22T12:32:43.726Z,4.40
2022-08-22T12:34:55.495Z,4.60
2022-08-22T12:37:04.796Z,4.50
2022-08-22T12:39:27.299Z,4.27
2022-08-22T12:41:56.894Z,4.90
2022-08-22T12:44:07.811Z,4.87
2022-08-22T12:46:28.231Z,4.17
2022-08-22T12:48:44.073Z,4.40
2022-08-22T12:50:51.731Z,5.00
2022-08-22T12:53:07.875Z,4.43
2022-08-22T12:55:25.492Z,5.03
2022-08-22T12:57:38.860Z,5.23
2022-08-22T12:59:45.393Z,4.53
2022-08-22T13:01:50.511Z,4.50
2022-08-22T13:03:57.350Z,4.40
2022-08-22T13:06:04.496Z,5.20
2022-08-22T13:08:17.592Z,4.40
2022-08-22T13:10:34.816Z,4.30
2022-08-22T13:12:44.455Z,4.37
2022-08-22T13:14:53.512Z,4.47
2022-08-22T13:16:58.696Z,4.80
2022-08-22T13:19:07.638Z,4.33
2022-08-22T13:21:15.161Z,4.57
2022-08-22T13:23:24.077Z,4.30
2022-08-22T13:25:29.247Z,4.60
2022-08-22T13:27:34.982Z,4.30
2022-08-22T13:29:43.018Z,4.60
2022-08-22T13:31:52.606Z,4.17
2022-08-22T13:34:00.711Z,4.63
2022-08-22T13:36:06.686Z,4.40
2022-08-22T13:38:13.631Z,4.40
2022-08-22T13:40:24.723Z,3.47
2022-08-22T13:42:31.376Z,4.37
2022-08-22T13:44:39.218Z,4.07
2022-08-22T13:46:58.185Z,4.20
2022-08-22T13:49:09.454Z,3.60
2022-08-22T13:51:16.235Z,3.60
2022-08-22T13:53:27.693Z,3.90
2022-08-22T13:55:37.554Z,4.50
2022-08-22T13:57:51.705Z,4.20
2022-08-22T14:00:05.836Z,3.90
2022-08-22T14:02:17.801Z,4.20
2022-08-22T14:04:28.835Z,4.20
2022-08-22T14:06:43.917Z,4.53
2022-08-22T14:08:48.222Z,3.80
2022-08-22T14:10:55.616Z,4.27
2022-08-22T14:13:32.614Z,3.83
2022-08-22T14:15:45.727Z,3.90
2022-08-22T14:17:49.838Z,3.97
2022-08-22T14:20:01.546Z,4.37
2022-08-22T14:22:08.423Z,4.00
2022-08-22T14:24:20.426Z,4.13
2022-08-22T14:26:33.087Z,3.87
2022-08-22T14:28:40.678Z,3.83
2022-08-22T14:30:59.464Z,4.40
2022-08-22T14:33:12.439Z,4.03
2022-08-22T14:35:34.858Z,4.40
2022-08-22T14:37:43.074Z,4.00
2022-08-22T14:39:48.249Z,4.03
2022-08-22T14:41:58.653Z,4.57
2022-08-22T14:44:07.055Z,4.20
2022-08-22T14:46:14.243Z,4.30
2022-08-22T14:48:30.965Z,3.53
2022-08-22T14:50:46.120Z,4.13
2022-08-22T14:53:05.615Z,3.90
2022-08-22T14:55:22.095Z,4.10
2022-08-22T14:57:25.421Z,4.30
2022-08-22T14:59:36.564Z,4.30
2022-08-22T15:01:54.922Z,4.10
2022-08-22T15:04:02.861Z,4.27
2022-08-22T15:06:12.482Z,4.60
2022-08-22T15:08:28.140Z,4.60
2022-08-22T15:10:33.113Z,4.33
2022-08-22T15:12:40.373Z,4.60
2022-08-22T15:14:51.941Z,3.97
2022-08-22T15:16:57.476Z,4.00
2022-08-22T15:19:02.106Z,4.20
2022-08-22T15:21:10.071Z,4.50
2022-08-22T15:23:23.427Z,4.20
2022-08-22T15:25:29.831Z,4.23
2022-08-22T15:27:36.668Z,4.43
2022-08-22T15:29:51.381Z,4.20
2022-08-22T15:31:57.672Z,3.90
2022-08-22T15:34:11.201Z,4.27
2022-08-22T15:36:24.121Z,4.33
2022-08-22T15:38:30.805Z,3.70
2022-08-22T15:40:40.484Z,3.80
2022-08-22T15:42:45.824Z,3.70
2022-08-22T15:44:55.220Z,4.00
2022-08-22T15:47:01.459Z,4.23
2022-08-22T15:49:07.741Z,3.60
2022-08-22T15:51:33.802Z,3.83
2022-08-22T15:54:00.971Z,3.87
2022-08-22T15:56:29.661Z,3.60
2022-08-22T15:58:33.148Z,3.83
2022-08-22T16:00:43.848Z,3.87
2022-08-22T16:02:57.481Z,3.40
2022-08-22T16:05:19.058Z,3.63
2022-08-22T16:07:28.877Z,3.63
2022-08-22T16:09:36.394Z,3.80
2022-08-22T16:11:40.591Z,4.00
2022-08-22T16:13:45.763Z,3.73
2022-08-22T16:16:01.431Z,3.63
2022-08-22T16:18:04.652Z,3.83
2022-08-22T16:20:43.310Z,3.77
2022-08-22T16:23:09.547Z,3.97
2022-08-22T16:25:14.228Z,3.73
2022-08-22T16:27:20.751Z,3.70
2022-08-22T16:29:32.061Z,3.57
2022-08-22T16:31:58.267Z,3.90
2022-08-22T16:34:24.099Z,3.80
2022-08-22T16:36:41.963Z,3.97
2022-08-22T16:38:49.407Z,3.90
2022-08-22T16:40:52.453Z,4.00
2022-08-22T16:43:14.131Z,3.50
2022-08-22T16:45:20.521Z,3.70
2022-08-22T16:47:25.885Z,3.90
2022-08-22T16:49:30.862Z,3.80
2022-08-22T16:51:33.836Z,3.80
2022-08-22T16:54:18.204Z,3.63
2022-08-22T16:56:28.008Z,4.00
2022-08-22T16:59:14.089Z,4.20
2022-08-22T17:01:34.968Z,3.73
2022-08-22T17:03:43.676Z,3.80
2022-08-22T17:05:54.831Z,3.40
2022-08-22T17:08:08.003Z,3.70
2022-08-22T17:10:25.264Z,3.20
2022-08-22T17:12:39.181Z,3.57
2022-08-22T17:14:48.801Z,3.90
2022-08-22T17:16:58.476Z,3.60
2022-08-22T17:19:14.668Z,3.70
2022-08-22T17:21:25.811Z,3.60
2022-08-22T17:23:36.269Z,3.60
2022-08-22T17:25:51.573Z,3.70
2022-08-22T17:28:07.554Z,3.90
2022-08-22T17:30:14.363Z,3.20
2022-08-22T17:32:22.504Z,3.97
2022-08-22T17:34:34.172Z,3.90
2022-08-22T17:36:54.084Z,3.90
2022-08-22T17:39:05.723Z,3.70
2022-08-22T17:41:17.602Z,4.10
2022-08-22T17:43:33.556Z,3.73
2022-08-22T17:46:12.771Z,3.37
2022-08-22T17:48:19.919Z,4.17
2022-08-22T17:50:26.837Z,3.70
2022-08-22T17:52:36.115Z,3.70
2022-08-22T17:54:41.747Z,3.80
2022-08-22T17:56:47.155Z,4.00
2022-08-22T17:59:08.598Z,3.60
2022-08-22T18:01:14.988Z,3.60
2022-08-22T18:03:23.481Z,3.93
2022-08-22T18:05:29.714Z,3.77
2022-08-22T18:07:55.179Z,4.10
2022-08-22T18:10:01.931Z,3.57
2022-08-22T18:12:09.306Z,3.87
2022-08-22T18:14:25.540Z,3.67
2022-08-22T18:16:30.698Z,4.27
2022-08-22T18:18:37.108Z,3.33
2022-08-22T18:20:48.159Z,3.90
2022-08-22T18:22:54.464Z,3.37
2022-08-22T18:25:02.620Z,4.10
2022-08-22T18:27:10.359Z,3.60
2022-08-22T18:29:47.046Z,3.30
2022-08-22T18:31:52.617Z,3.73
2022-08-22T18:34:00.706Z,3.90
2022-08-22T18:36:10.756Z,3.70
2022-08-22T18:38:22.259Z,3.67
2022-08-22T18:40:33.531Z,4.23
2022-08-22T18:42:41.436Z,3.80
2022-08-22T18:44:46.217Z,3.93
2022-08-22T18:46:52.006Z,4.13
2022-08-22T18:49:14.758Z,3.87
2022-08-22T18:51:24.776Z,3.90
2022-08-22T18:53:38.038Z,3.80
2022-08-22T18:55:47.775Z,4.50
2022-08-22T18:58:11.121Z,4.07
2022-08-22T19:00:17.798Z,4.63
2022-08-22T19:02:55.945Z,4.30
2022-08-22T19:05:33.366Z,4.10
2022-08-22T19:08:05.171Z,3.90
2022-08-22T19:10:23.313Z,3.97
2022-08-22T19:12:37.184Z,3.67
2022-08-22T19:15:12.377Z,4.40
2022-08-22T19:17:33.981Z,3.80
2022-08-22T19:20:01.922Z,3.47
2022-08-22T19:22:27.835Z,4.00
2022-08-22T19:25:09.061Z,3.73
2022-08-22T19:27:31.167Z,3.70
2022-08-22T19:29:59.944Z,3.77
2022-08-22T19:32:05.914Z,3.70
2022-08-22T19:34:36.651Z,3.90
2022-08-22T19:36:39.788Z,4.07
2022-08-22T19:38:56.705Z,4.00
2022-08-22T19:40:59.852Z,4.10
2022-08-22T19:43:30.162Z,4.27
2022-08-22T19:45:40.856Z,4.17
2022-08-22T19:47:44.861Z,4.00
2022-08-22T19:49:58.706Z,3.90
2022-08-22T19:52:10.304Z,4.10
2022-08-22T19:54:18.096Z,3.47
2022-08-22T19:56:33.713Z,3.40
2022-08-22T19:58:57.585Z,3.67
2022-08-22T20:01:06.481Z,3.90
2022-08-22T20:03:15.409Z,3.70
2022-08-22T20:05:37.752Z,3.50
2022-08-22T20:07:51.122Z,3.50
2022-08-22T20:10:02.400Z,3.80
2022-08-22T20:12:15.489Z,3.80
2022-08-22T20:14:26.556Z,3.67
2022-08-22T20:17:02.687Z,3.70
2022-08-22T20:19:19.144Z,3.20
2022-08-22T20:21:44.462Z,3.80
2022-08-22T20:23:47.871Z,3.40
2022-08-22T20:25:52.960Z,3.60
2022-08-22T20:28:02.861Z,3.57
2022-08-22T20:30:10.814Z,3.53
2022-08-22T20:32:16.545Z,3.53
2022-08-22T20:34:23.440Z,3.47
2022-08-22T20:36:28.557Z,3.27
2022-08-22T20:38:38.079Z,3.83
2022-08-22T20:40:56.346Z,3.70
2022-08-22T20:43:04.316Z,3.50
2022-08-22T20:45:18.168Z,3.77
2022-08-22T20:47:26.287Z,3.30
2022-08-22T20:49:42.445Z,3.30
2022-08-22T20:51:52.683Z,3.93
2022-08-22T20:53:58.607Z,4.43
2022-08-22T20:56:01.614Z,4.70
2022-08-22T20:58:07.026Z,4.93
2022-08-22T21:00:12.976Z,5.13
2022-08-22T21:02:20.440Z,5.30
2022-08-22T21:04:26.729Z,5.10
2022-08-22T21:06:36.100Z,5.57
2022-08-22T21:08:39.414Z,5.97
2022-08-22T21:11:01.142Z,7.23
2022-08-22T21:13:08.474Z,7.10
2022-08-22T21:15:11.587Z,7.30
2022-08-22T21:17:22.157Z,7.80
2022-08-22T21:19:26.979Z,7.40
2022-08-22T21:21:31.494Z,7.70
2022-08-22T21:23:35.031Z,8.37
2022-08-22T21:25:53.721Z,7.90
2022-08-22T21:27:57.139Z,8.50
2022-08-22T21:30:01.972Z,7.73
2022-08-22T21:32:24.523Z,6.40
2022-08-22T21:34:29.835Z,7.60
2022-08-22T21:36:33.065Z,7.50
2022-08-22T21:38:36.095Z,7.73
2022-08-22T21:40:39.820Z,7.10
2022-08-22T21:42:46.209Z,6.27
2022-08-22T21:44:56.861Z,6.07
2022-08-22T21:47:19.124Z,6.67
2022-08-22T21:49:34.095Z,6.70
2022-08-22T21:51:42.675Z,6.90
2022-08-22T21:53:45.712Z,6.77
2022-08-22T21:55:48.799Z,7.73
2022-08-22T21:58:12.055Z,7.07
2022-08-22T22:00:41.181Z,6.87
2022-08-22T22:02:59.959Z,6.97
2022-08-22T22:05:09.989Z,6.80
2022-08-22T22:07:14.490Z,6.90
2022-08-22T22:09:19.139Z,6.80
2022-08-22T22:11:22.207Z,6.70
2022-08-22T22:13:27.158Z,6.47
2022-08-22T22:15:33.153Z,6.73
2022-08-22T22:17:36.255Z,7.10
2022-08-22T22:19:39.812Z,6.83
2022-08-22T22:21:42.799Z,6.27
2022-08-22T22:23:46.029Z,7.00
2022-08-22T22:25:49.567Z,6.70
2022-08-22T22:27:52.856Z,6.83
2022-08-22T22:29:58.860Z,6.50
2022-08-22T22:32:01.882Z,6.60
2022-08-22T22:34:05.160Z,6.60
2022-08-22T22:36:11.277Z,7.00
2022-08-22T22:38:14.709Z,7.43
2022-08-22T22:40:17.798Z,6.77
2022-08-22T22:42:20.892Z,7.60
2022-08-22T22:44:25.259Z,6.80
2022-08-22T22:46:29.760Z,6.70
2022-08-22T22:48:32.920Z,7.27
2022-08-22T22:50:40.395Z,7.13
2022-08-22T22:52:43.412Z,6.80
2022-08-22T22:54:46.564Z,6.70
2022-08-22T22:56:53.451Z,6.80
2022-08-22T22:58:58.981Z,6.80
2022-08-22T23:01:08.283Z,7.07
2022-08-22T23:03:12.754Z,6.80
2022-08-22T23:05:15.895Z,6.67
2022-08-22T23:07:19.373Z,6.97
2022-08-22T23:09:23.858Z,7.03
2022-08-22T23:11:41.824Z,7.00
2022-08-22T23:13:44.808Z,6.63
2022-08-22T23:15:47.801Z,7.17
2022-08-22T23:17:50.811Z,6.90
2022-08-22T23:19:55.208Z,6.83
2022-08-22T23:21:59.532Z,7.10
2022-08-22T23:24:04.402Z,6.87
2022-08-22T23:26:07.859Z,7.23
2022-08-22T23:28:11.007Z,7.33
2022-08-22T23:30:14.472Z,7.57
2022-08-22T23:32:17.783Z,6.63
2022-08-22T23:34:22.951Z,6.67
2022-08-22T23:36:27.319Z,6.47
2022-08-22T23:38:30.333Z,6.77
2022-08-22T23:40:33.608Z,6.87
2022-08-22T23:42:36.685Z,6.63
2022-08-22T23:44:41.152Z,7.67
2022-08-22T23:46:44.568Z,6.60
2022-08-22T23:48:47.724Z,7.60
2022-08-22T23:50:50.707Z,7.10
2022-08-22T23:52:55.155Z,7.50
2022-08-22T23:54:58.115Z,7.60
2022-08-22T23:57:02.814Z,6.30
2022-08-22T23:59:16.691Z,6.50
